createdAt,value
2024-05-09T00:03:26.955Z,16.83
2024-05-09T00:08:29.338Z,16.73
2024-05-09T00:13:31.366Z,16.10
2024-05-09T00:18:33.641Z,16.51
2024-05-09T00:23:35.925Z,16.32
2024-05-09T00:28:38.191Z,16.44
2024-05-09T00:33:40.454Z,16.29
2024-05-09T00:38:42.446Z,16.22
2024-05-09T00:43:44.340Z,16.21
2024-05-09T00:48:49.423Z,15.86
2024-05-09T00:53:51.424Z,16.57
2024-05-09T00:58:53.814Z,15.73
2024-05-09T01:03:56.451Z,15.70
2024-05-09T01:08:58.532Z,16.43
2024-05-09T01:14:00.620Z,16.00
2024-05-09T01:19:04.747Z,16.39
2024-05-09T01:24:07.084Z,16.25
2024-05-09T01:29:09.213Z,15.41
2024-05-09T01:34:11.340Z,16.22
2024-05-09T01:39:13.455Z,16.14
2024-05-09T01:44:15.361Z,15.42
2024-05-09T01:49:17.488Z,16.24
2024-05-09T01:54:19.468Z,16.20
2024-05-09T01:59:21.687Z,16.06
2024-05-09T02:04:23.983Z,16.05
2024-05-09T02:09:26.147Z,16.14
2024-05-09T02:14:28.154Z,16.01
2024-05-09T02:19:32.225Z,15.62
2024-05-09T02:24:35.377Z,15.60
2024-05-09T02:29:37.345Z,14.73
2024-05-09T02:34:39.403Z,15.82
2024-05-09T02:39:41.335Z,15.25
2024-05-09T02:44:43.432Z,15.97
2024-05-09T02:49:45.727Z,15.62
2024-05-09T02:54:47.988Z,15.39
2024-05-09T02:59:49.980Z,15.05
2024-05-09T03:04:51.927Z,15.89
2024-05-09T03:09:53.889Z,16.02
2024-05-09T03:14:55.802Z,15.99
2024-05-09T03:19:57.787Z,15.90
2024-05-09T03:25:00.115Z,15.47
2024-05-09T03:30:03.818Z,15.62
2024-05-09T03:35:07.842Z,14.78
2024-05-09T03:40:17.533Z,15.14
2024-05-09T03:45:22.731Z,15.82
2024-05-09T03:50:30.232Z,15.18
2024-05-09T03:55:36.281Z,15.58
2024-05-09T04:00:40.046Z,15.03
2024-05-09T04:05:44.033Z,15.37
2024-05-09T04:10:46.760Z,15.16
2024-05-09T04:15:48.671Z,15.17
2024-05-09T04:20:50.611Z,14.65
2024-05-09T04:25:52.778Z,14.61
2024-05-09T04:30:54.634Z,13.68
2024-05-09T04:35:56.609Z,14.73
2024-05-09T04:40:58.528Z,15.01
2024-05-09T04:46:00.397Z,14.33
2024-05-09T04:51:03.027Z,14.91
2024-05-09T04:56:05.377Z,14.83
2024-05-09T05:01:07.631Z,14.26
2024-05-09T05:06:09.520Z,14.99
2024-05-09T05:11:14.398Z,15.06
2024-05-09T05:16:16.560Z,14.91
2024-05-09T05:21:18.660Z,15.43
2024-05-09T05:26:20.905Z,14.81
2024-05-09T05:31:22.937Z,15.42
2024-05-09T05:36:25.016Z,13.77
2024-05-09T05:41:27.587Z,13.24
2024-05-09T05:46:29.674Z,14.64
2024-05-09T05:51:31.596Z,14.68
2024-05-09T05:56:34.744Z,15.31
2024-05-09T06:01:36.861Z,15.06
2024-05-09T06:06:38.765Z,15.35
2024-05-09T06:11:41.548Z,13.73
2024-05-09T06:16:43.936Z,13.66
2024-05-09T06:21:46.128Z,14.51
2024-05-09T06:26:48.084Z,15.43
2024-05-09T06:31:49.969Z,14.20
2024-05-09T06:36:52.099Z,14.72
2024-05-09T06:41:53.939Z,14.51
2024-05-09T06:46:58.180Z,15.97
2024-05-09T06:52:01.302Z,16.05
2024-05-09T06:57:03.266Z,16.39
2024-05-09T07:02:05.172Z,16.64
2024-05-09T07:07:09.515Z,16.12
2024-05-09T07:12:11.742Z,15.62
2024-05-09T07:17:14.711Z,16.54
2024-05-09T07:22:16.788Z,15.54
2024-05-09T07:27:18.789Z,16.39
2024-05-09T07:32:21.101Z,16.46
2024-05-09T07:37:23.761Z,16.74
2024-05-09T07:42:25.617Z,16.54
2024-05-09T07:53:32.759Z,15.46
2024-05-09T07:57:54.653Z,16.52
2024-05-09T08:02:56.694Z,16.17
2024-05-09T08:07:58.656Z,15.84
2024-05-09T08:13:00.647Z,17.23
2024-05-09T08:18:02.896Z,16.63
2024-05-09T08:23:04.987Z,16.46
2024-05-09T08:28:07.337Z,16.74
2024-05-09T08:33:09.444Z,17.39
2024-05-09T08:38:11.694Z,16.72
2024-05-09T08:43:14.492Z,17.27
2024-05-09T08:48:18.370Z,16.72
2024-05-09T08:53:20.367Z,17.03
2024-05-09T08:58:22.419Z,19.10
2024-05-09T09:03:27.009Z,19.84
2024-05-09T09:08:29.381Z,19.83
2024-05-09T09:13:31.500Z,19.84
2024-05-09T09:18:34.693Z,19.66
2024-05-09T09:23:36.946Z,20.30
2024-05-09T09:28:40.816Z,19.56
2024-05-09T09:33:43.423Z,19.70
2024-05-09T09:38:47.018Z,19.06
2024-05-09T09:43:49.102Z,18.36
2024-05-09T09:48:51.422Z,18.89
2024-05-09T09:53:53.772Z,19.19
2024-05-09T09:58:56.312Z,19.50
2024-05-09T10:03:58.388Z,19.76
2024-05-09T10:09:00.890Z,19.72
2024-05-09T10:14:03.021Z,19.41
2024-05-09T10:19:05.155Z,19.88
2024-05-09T10:24:07.547Z,18.83
2024-05-09T10:29:18.236Z,18.66
2024-05-09T10:34:23.423Z,18.80
2024-05-09T10:39:26.012Z,18.62
2024-05-09T10:44:28.110Z,18.84
2024-05-09T10:49:30.492Z,19.46
2024-05-09T10:54:36.688Z,19.53
2024-05-09T10:59:40.040Z,19.64
2024-05-09T11:04:42.560Z,19.10
2024-05-09T11:09:52.681Z,18.45
2024-05-09T11:14:55.118Z,19.09
2024-05-09T11:19:57.142Z,19.41
2024-05-09T11:25:03.100Z,18.60
2024-05-09T11:30:07.347Z,19.01
2024-05-09T11:35:13.384Z,20.02
2024-05-09T11:40:21.468Z,19.41
2024-05-09T11:45:27.680Z,19.38
2024-05-09T11:50:34.940Z,19.00
2024-05-09T11:55:38.476Z,18.51
2024-05-09T12:00:40.603Z,18.18
2024-05-09T12:05:43.966Z,19.67
2024-05-09T12:10:47.124Z,20.10
2024-05-09T12:15:49.628Z,20.27
2024-05-09T12:20:52.320Z,20.07
2024-05-09T12:25:54.405Z,20.14
2024-05-09T12:30:56.502Z,20.39
2024-05-09T12:35:58.626Z,20.35
2024-05-09T12:41:01.006Z,19.67
2024-05-09T12:46:04.494Z,20.44
2024-05-09T12:51:06.799Z,20.52
2024-05-09T12:56:11.634Z,21.06
2024-05-09T13:01:14.011Z,20.97
2024-05-09T13:06:16.101Z,21.03
2024-05-09T13:11:18.368Z,21.09
2024-05-09T13:16:36.849Z,21.38
2024-05-09T13:21:39.272Z,21.30
2024-05-09T13:26:44.550Z,21.64
2024-05-09T13:31:46.495Z,21.64
2024-05-09T13:36:48.595Z,21.42
2024-05-09T13:41:53.755Z,21.66
2024-05-09T13:46:55.827Z,22.10
2024-05-09T13:51:58.042Z,21.69
2024-05-09T13:57:03.567Z,22.05
2024-05-09T14:02:06.155Z,21.93
2024-05-09T14:07:13.439Z,22.20
2024-05-09T14:12:15.978Z,22.33
2024-05-09T14:17:18.293Z,22.20
2024-05-09T14:22:20.803Z,21.98
2024-05-09T14:27:22.905Z,22.34
2024-05-09T14:32:25.374Z,22.09
2024-05-09T14:37:31.497Z,22.55
2024-05-09T14:42:36.389Z,22.78
2024-05-09T14:47:41.637Z,23.02
2024-05-09T14:52:43.945Z,22.85
2024-05-09T14:57:46.073Z,22.36
2024-05-09T15:02:51.384Z,22.89
2024-05-09T15:07:53.920Z,22.40
2024-05-09T15:13:00.428Z,22.49
2024-05-09T15:18:03.834Z,22.51
2024-05-09T15:23:07.000Z,22.43
2024-05-09T15:28:12.745Z,22.35
2024-05-09T15:33:15.152Z,22.27
2024-05-09T15:38:18.650Z,22.11
2024-05-09T15:43:21.028Z,22.29
2024-05-09T15:48:23.263Z,21.80
2024-05-09T15:53:25.334Z,21.47
2024-05-09T15:58:28.828Z,21.94
2024-05-09T16:03:31.125Z,21.58
2024-05-09T16:08:34.534Z,21.82
2024-05-09T16:13:36.532Z,21.63
2024-05-09T16:18:38.854Z,21.43
2024-05-09T16:23:41.079Z,21.20
2024-05-09T16:28:43.141Z,21.07
2024-05-09T16:33:47.211Z,21.08
2024-05-09T16:38:49.278Z,20.96
2024-05-09T16:43:51.168Z,20.82
2024-05-09T16:48:53.499Z,21.07
2024-05-09T16:53:55.577Z,20.36
2024-05-09T16:58:57.601Z,20.97
2024-05-09T17:03:59.762Z,20.60
2024-05-09T17:09:08.622Z,20.06
2024-05-09T17:14:13.765Z,20.55
2024-05-09T17:19:15.892Z,20.31
2024-05-09T17:24:17.861Z,20.53
2024-05-09T17:29:21.875Z,20.41
2024-05-09T17:34:25.538Z,20.25
2024-05-09T17:39:27.506Z,20.35
2024-05-09T17:44:29.572Z,20.45
2024-05-09T17:49:31.607Z,20.19
2024-05-09T17:54:33.604Z,20.16
2024-05-09T17:59:35.478Z,20.29
2024-05-09T18:04:37.412Z,20.08
2024-05-09T18:09:39.752Z,19.94
2024-05-09T18:14:41.593Z,20.04
2024-05-09T18:19:43.565Z,19.44
2024-05-09T18:24:46.041Z,19.17
2024-05-09T18:29:48.001Z,19.35
2024-05-09T18:34:50.407Z,19.35
2024-05-09T18:39:52.777Z,19.08
2024-05-09T18:44:55.311Z,18.81
2024-05-09T18:49:58.164Z,19.13
2024-05-09T18:55:00.634Z,18.26
2024-05-09T19:00:02.823Z,18.65
2024-05-09T19:05:06.161Z,18.54
2024-05-09T19:10:21.560Z,18.66
2024-05-09T19:15:25.320Z,18.70
2024-05-09T19:20:33.376Z,18.58
2024-05-09T19:25:37.991Z,18.55
2024-05-09T19:30:43.093Z,18.09
2024-05-09T19:35:45.952Z,18.20
2024-05-09T19:40:48.316Z,17.69
2024-05-09T19:45:51.412Z,17.95
2024-05-09T19:50:54.738Z,17.94
2024-05-09T19:55:58.962Z,17.58
2024-05-09T20:01:02.123Z,18.01
2024-05-09T20:06:04.738Z,17.90
2024-05-09T20:11:06.699Z,18.07
2024-05-09T20:16:09.467Z,18.30
2024-05-09T20:21:12.404Z,17.70
2024-05-09T20:26:14.461Z,17.60
2024-05-09T20:31:20.691Z,17.56
2024-05-09T20:36:22.978Z,18.03
2024-05-09T20:41:25.722Z,17.76
2024-05-09T20:46:28.073Z,18.16
2024-05-09T20:51:30.435Z,18.27
2024-05-09T20:56:32.452Z,18.09
2024-05-09T21:01:34.552Z,18.00
2024-05-09T21:06:36.516Z,17.76
2024-05-09T21:11:38.478Z,16.90
2024-05-09T21:16:40.682Z,17.36
2024-05-09T21:21:42.895Z,17.61
2024-05-09T21:26:44.808Z,17.01
2024-05-09T21:31:46.643Z,16.91
2024-05-09T21:36:48.672Z,16.79
2024-05-09T21:41:51.480Z,16.98
2024-05-09T21:46:53.578Z,17.37
2024-05-09T21:51:55.736Z,16.77
2024-05-09T21:56:57.887Z,16.65
2024-05-09T22:02:00.123Z,17.27
2024-05-09T22:07:02.139Z,16.97
2024-05-09T22:12:04.958Z,15.32
2024-05-09T22:17:06.990Z,17.27
2024-05-09T22:22:08.919Z,15.79
2024-05-09T22:27:12.125Z,16.70
2024-05-09T22:32:14.106Z,16.74
2024-05-09T22:37:16.340Z,16.27
2024-05-09T22:42:18.444Z,16.50
2024-05-09T22:47:20.427Z,16.61
2024-05-09T22:52:22.716Z,14.74
2024-05-09T22:57:24.871Z,15.05
2024-05-09T23:02:27.099Z,15.24
2024-05-09T23:07:29.095Z,15.28
2024-05-09T23:12:31.013Z,14.97
2024-05-09T23:17:32.902Z,16.31
2024-05-09T23:22:35.085Z,16.30
2024-05-09T23:27:37.528Z,15.82
2024-05-09T23:32:39.645Z,14.98
2024-05-09T23:37:42.078Z,15.92
2024-05-09T23:42:44.281Z,15.60
2024-05-09T23:47:46.957Z,16.65
2024-05-09T23:52:48.967Z,16.60
2024-05-09T23:57:50.845Z,15.86
